Welcome to mirrors.dotsrc.org

All our mirrors of open source software are available via http, https, ftp and an onion service. More information about our mirrors including statistics and contact information is available on our mirror info pages.

For information about dotsrc.org and our other services please go to our website.

Index of /mirrors/mirrors/parrot/pool/main/w/

File Name  ↓ File Size  ↓ Date  ↓ 
Parent directory/--
wpa/-2022-05-19 23:57:38
waitress/-2022-05-19 23:56:54
wpewebkit/-2022-04-19 17:32:56
webkit2gtk/-2022-04-19 17:32:56
wolfssl/-2022-03-20 23:33:55
wireguard-go/-2022-03-15 14:27:05
waffle/-2022-03-15 14:27:05
wcslib/-2022-03-15 14:27:05
wit/-2022-03-15 14:27:05
wireshark/-2022-03-15 14:04:39
wordpress/-2022-03-15 14:04:39
werken.xpath/-2022-03-15 14:04:39
witnessme/-2022-03-15 14:04:39
weechat/-2022-03-12 10:34:02
webshells/-2022-02-23 14:44:54
writerperfect/-2021-12-29 20:15:13
wyrd/-2021-12-29 20:14:23
wxedid/-2021-12-29 20:14:23
wxhexeditor/-2021-12-29 20:14:23
wzip/-2021-12-29 20:14:23
wxmaxima/-2021-12-29 20:14:23
wys/-2021-12-29 20:14:23
wwl/-2021-12-29 20:14:22
wtype/-2021-12-29 20:14:22
wvdial/-2021-12-29 20:14:22
wsjtx/-2021-12-29 20:14:22
wuzz/-2021-12-29 20:14:22
wuzzah/-2021-12-29 20:14:22
wv/-2021-12-29 20:14:22
wsynth-dssi/-2021-12-29 20:14:22
wtdbg2/-2021-12-29 20:14:22
wxwidgets3.0/-2021-12-29 20:14:22
wxastrocapture/-2021-12-29 20:14:22
wraplinux/-2021-12-29 20:14:21
wreport/-2021-12-29 20:14:21
wput/-2021-12-29 20:14:21
wsclean/-2021-12-29 20:14:21
wrapsrv/-2021-12-29 20:14:21
wrk/-2021-12-29 20:14:21
wrapperfactory.app/-2021-12-29 20:14:21
wp2latex/-2021-12-29 20:14:20
wp2x/-2021-12-29 20:14:20
worker/-2021-12-29 20:14:20
wpa-sycophant/-2021-12-29 20:14:20
wpan-tools/-2021-12-29 20:14:20
workrave/-2021-12-29 20:14:20
worklog/-2021-12-29 20:14:20
wmxres/-2021-12-29 20:14:19
woff-tools/-2021-12-29 20:14:19
wob/-2021-12-29 20:14:19
wofi/-2021-12-29 20:14:19
wordgrinder/-2021-12-29 20:14:19
wordwarvi/-2021-12-29 20:14:19
wordnet/-2021-12-29 20:14:19
woff2/-2021-12-29 20:14:19
wordplay/-2021-12-29 20:14:19
wmstickynotes/-2021-12-29 20:14:18
wmwork/-2021-12-29 20:14:18
wmsystemtray/-2021-12-29 20:14:18
wmpuzzle/-2021-12-29 20:14:18
wmshutdown/-2021-12-29 20:14:18
wmweather/-2021-12-29 20:14:18
wmtop/-2021-12-29 20:14:18
wmtime/-2021-12-29 20:14:18
wmxmms2/-2021-12-29 20:14:18
wmsysmon/-2021-12-29 20:14:18
wmressel/-2021-12-29 20:14:18
wmrack/-2021-12-29 20:14:18
wmsun/-2021-12-29 20:14:18
wmtemp/-2021-12-29 20:14:18
wmtv/-2021-12-29 20:14:18
wmweather+/-2021-12-29 20:14:18
wmmon/-2021-12-29 20:14:17
wmmatrix/-2021-12-29 20:14:17
wmpinboard/-2021-12-29 20:14:17
wmppp.app/-2021-12-29 20:14:17
wmnet/-2021-12-29 20:14:17
wmnut/-2021-12-29 20:14:17
wmmoonclock/-2021-12-29 20:14:17
wmmemload/-2021-12-29 20:14:17
wmlongrun/-2021-12-29 20:14:17
wmmixer/-2021-12-29 20:14:17
wmnd/-2021-12-29 20:14:17
wmmisc/-2021-12-29 20:14:17
wmix/-2021-12-29 20:14:16
wmhdplop/-2021-12-29 20:14:16
wmitime/-2021-12-29 20:14:16
wmi/-2021-12-29 20:14:16
wmifinfo/-2021-12-29 20:14:16
wmload/-2021-12-29 20:14:16
wmifs/-2021-12-29 20:14:16
wmdrawer/-2021-12-29 20:14:15
wmcpuload/-2021-12-29 20:14:15
wmfrog/-2021-12-29 20:14:15
wmgtemp/-2021-12-29 20:14:15
wmfsm/-2021-12-29 20:14:15
wmctrl/-2021-12-29 20:14:15
wmforkplop/-2021-12-29 20:14:15
wmf/-2021-12-29 20:14:15
wmdate/-2021-12-29 20:14:15
wmdiskmon/-2021-12-29 20:14:15
wmget/-2021-12-29 20:14:15
wmforecast/-2021-12-29 20:14:15
wmfire/-2021-12-29 20:14:15
wmcube/-2021-12-29 20:14:15
wmcalclock/-2021-12-29 20:14:14
wmcore/-2021-12-29 20:14:14
wmcoincoin/-2021-12-29 20:14:14
wmcpu/-2021-12-29 20:14:14
wmcalc/-2021-12-29 20:14:14
wmbiff/-2021-12-29 20:14:14
wmbattery/-2021-12-29 20:14:14
wmcliphist/-2021-12-29 20:14:14
wmclock/-2021-12-29 20:14:14
wmcdplay/-2021-12-29 20:14:14
wmanager/-2021-12-29 20:14:14
wmclockmon/-2021-12-29 20:14:14
wmauda/-2021-12-29 20:14:14
wmbubble/-2021-12-29 20:14:14
wmbutton/-2021-12-29 20:14:14
wmail/-2021-12-29 20:14:13
wlcs/-2021-12-29 20:14:13
wlr-randr/-2021-12-29 20:14:13
wizznic/-2021-12-29 20:14:13
wkhtmltopdf/-2021-12-29 20:14:13
wlogout/-2021-12-29 20:14:13
wmaker/-2021-12-29 20:14:13
wl-clipboard/-2021-12-29 20:14:13
wmacpi/-2021-12-29 20:14:13
wm2/-2021-12-29 20:14:13
wiredtiger/-2021-12-29 20:14:12
winrmcp/-2021-12-29 20:14:12
wise/-2021-12-29 20:14:12
wireguard/-2021-12-29 20:14:12
winregfs/-2021-12-29 20:14:12
wipe/-2021-12-29 20:14:12
wireless-tools/-2021-12-29 20:14:12
wininfo/-2021-12-29 20:14:12
winwrangler/-2021-12-29 20:14:12
windowlab/-2021-12-29 20:14:11
wing/-2021-12-29 20:14:11
winff/-2021-12-29 20:14:11
wings3d/-2021-12-29 20:14:11
wine/-2021-12-29 20:14:11
winexe/-2021-12-29 20:14:11
wimlib/-2021-12-29 20:14:11
wiipdf/-2021-12-29 20:14:10
wide-dhcpv6/-2021-12-29 20:14:10
widelands/-2021-12-29 20:14:10
wildmidi/-2021-12-29 20:14:10
wims/-2021-12-29 20:14:10
wiggle/-2021-12-29 20:14:10
wily/-2021-12-29 20:14:10
whysynth/-2021-12-29 20:14:10
why3/-2021-12-29 20:14:09
whichman/-2021-12-29 20:14:08
whatmask/-2021-12-29 20:14:08
whois/-2021-12-29 20:14:08
whitedune/-2021-12-29 20:14:08
whipper/-2021-12-29 20:14:08
whowatch/-2021-12-29 20:14:08
wham-align/-2021-12-29 20:14:08
whitedb/-2021-12-29 20:14:08
whitakers-words/-2021-12-29 20:14:08
wget2/-2021-12-29 20:14:08
wf-recorder/-2021-12-29 20:14:07
wget/-2021-12-29 20:14:07
weplab/-2021-12-29 20:14:07
wesnoth-1.14/-2021-12-29 20:14:07
west-chamber/-2021-12-29 20:14:07
wev/-2021-12-29 20:14:07
weston/-2021-12-29 20:14:07
welle.io/-2021-12-29 20:14:06
weightwatcher/-2021-12-29 20:14:06
weex/-2021-12-29 20:14:06
weechat-matrix/-2021-12-29 20:14:06
welcome2l/-2021-12-29 20:14:06
weborf/-2021-12-29 20:14:05
websocketd/-2021-12-29 20:14:05
webfs/-2021-12-29 20:14:05
webhook/-2021-12-29 20:14:05
webissues/-2021-12-29 20:14:05
websockify/-2021-12-29 20:14:05
webdruid/-2021-12-29 20:14:05
wcstools/-2021-12-29 20:14:04
webcamoid/-2021-12-29 20:14:04
wdisplays/-2021-12-29 20:14:04
webdis/-2021-12-29 20:14:04
wdm/-2021-12-29 20:14:04
wdiff/-2021-12-29 20:14:04
webauth/-2021-12-29 20:14:04
waybar/-2021-12-29 20:14:03
wcc/-2021-12-29 20:14:03
wcd/-2021-12-29 20:14:03
wavemon/-2021-12-29 20:14:03
wav2cdr/-2021-12-29 20:14:03
wavbreaker/-2021-12-29 20:14:03
watobo/-2021-12-29 20:14:03
wavpack/-2021-12-29 20:14:03
wbox/-2021-12-29 20:14:03
wbar/-2021-12-29 20:14:03
waylandpp/-2021-12-29 20:14:03
wavtool-pl/-2021-12-29 20:14:03
wcalc/-2021-12-29 20:14:03
wannier90/-2021-12-29 20:14:02
warzone2100/-2021-12-29 20:14:02
wah-plugins/-2021-12-29 20:14:02
watchman/-2021-12-29 20:14:02
watchdog/-2021-12-29 20:14:02
watchcatd/-2021-12-29 20:14:02
wabt/-2021-12-29 20:14:02
warmux/-2021-12-29 20:14:02
w3cam/-2021-12-29 20:14:01
w1retap/-2021-12-29 20:14:01
w9wm/-2021-12-29 20:14:01
w-scan/-2021-12-29 20:14:01
w3m/-2021-12-29 20:14:01
wvstreams/-2021-12-29 20:13:29
wxpython4.0/-2021-12-29 20:08:51
wal2json/-2021-12-29 20:06:53
wikidiff2/-2021-12-29 20:06:24
wyhash/-2021-12-29 19:59:34
wxsvg/-2021-12-29 19:59:34
wxsqlite3/-2021-12-29 19:59:33
wslay/-2021-12-29 19:59:31
wpebackend-fdo/-2021-12-29 19:59:30
wnn6-sdk/-2021-12-29 19:59:29
wlroots/-2021-12-29 19:59:28
wfmath/-2021-12-29 19:59:25
webrtc-audio-processing/-2021-12-29 19:59:24
websocketpp/-2021-12-29 19:59:24
webkit2-sharp/-2021-12-29 19:59:23
wbxml2/-2021-12-29 19:59:23
wayland/-2021-12-29 19:59:22
waili/-2021-12-29 19:59:21
wacomtablet/-2021-12-29 19:40:31
wxglade/-2021-12-29 19:24:23
wwwconfig-common/-2021-12-29 19:24:22
wspanish/-2021-12-29 19:24:17
wsl/-2021-12-29 19:24:17
writeboost/-2021-12-29 19:24:16
writer2latex/-2021-12-29 19:24:16
wordpress-xrds-simple/-2021-12-29 19:24:13
wordpress-shibboleth/-2021-12-29 19:24:13
wordlists/-2021-12-29 19:24:11
wordlistraider/-2021-12-29 19:24:11
wondershaper/-2021-12-29 19:24:10
wml/-2021-12-29 19:24:08
wmis/-2021-12-29 19:24:07
wmaker-data/-2021-12-29 19:24:04
wm-icons/-2021-12-29 19:24:04
wlc/-2021-12-29 19:24:03
wl-beta/-2021-12-29 19:24:03
wl/-2021-12-29 19:24:03
witalian/-2021-12-29 19:24:02
wireless-regdb/-2021-12-29 19:24:02
wireguard-linux-compat/-2021-12-29 19:24:01
win32-loader/-2021-12-29 19:23:59
windows-el/-2021-12-29 19:23:59
windows-privesc-check/-2021-12-29 19:23:59
wims-moodle/-2021-12-29 19:23:58
wims-lti/-2021-12-29 19:23:58
wikipedia2text/-2021-12-29 19:23:57
wiliki/-2021-12-29 19:23:57
wims-help/-2021-12-29 19:23:57
wikitrans/-2021-12-29 19:23:57
wiki2beamer/-2021-12-29 19:23:56
wifite/-2021-12-29 19:23:56
wifiphisher/-2021-12-29 19:23:56
wig-ng/-2021-12-29 19:23:56
wig/-2021-12-29 19:23:56
wifi-honey/-2021-12-29 19:23:56
wifi-qr/-2021-12-29 19:23:56
widemargin/-2021-12-29 19:23:55
whizzytex/-2021-12-29 19:23:42
whohas/-2021-12-29 19:23:42
whiff/-2021-12-29 19:23:41
wgetpaste/-2021-12-29 19:23:41
whereami/-2021-12-29 19:23:41
whatmaps/-2021-12-29 19:23:41
whalebuilder/-2021-12-29 19:23:41
whatweb/-2021-12-29 19:23:41
whichwayisup/-2021-12-29 19:23:41
when/-2021-12-29 19:23:41
wfrench/-2021-12-29 19:23:40
wfuzz/-2021-12-29 19:23:40
weresync/-2021-12-29 19:23:25
weka/-2021-12-29 19:23:24
weirdx/-2021-12-29 19:23:24
weechat-scripts/-2021-12-29 19:23:23
weevely/-2021-12-29 19:23:23
websploit/-2021-12-29 19:23:22
webscarab/-2021-12-29 19:23:21
webmagick/-2021-12-29 19:23:21
webdeploy/-2021-12-29 19:23:19
webcamd/-2021-12-29 19:23:18
weather-util/-2021-12-29 19:23:18
webacoo/-2021-12-29 19:23:18
webapps-metainfo/-2021-12-29 19:23:18
weasyprint/-2021-12-29 19:23:18
wavesurfer/-2021-12-29 19:23:15
wayland-protocols/-2021-12-29 19:23:15
watcher-tempest-plugin/-2021-12-29 19:23:14
watcher/-2021-12-29 19:23:14
wasi-libc/-2021-12-29 19:23:14
watson/-2021-12-29 19:23:14
wapiti/-2021-12-29 19:23:07
wapua/-2021-12-29 19:23:07
wand/-2021-12-29 19:23:06
w3m-el-snapshot/-2021-12-29 19:23:05
w3m-el/-2021-12-29 19:23:05
wakeonlan/-2021-12-29 19:23:05
wait-for-it/-2021-12-29 19:23:05
wafw00f/-2021-12-29 19:23:05
wadc/-2021-12-29 19:23:05
waagent/-2021-12-29 19:23:05
w3c-sgml-lib/-2021-12-29 19:23:04
w3c-markup-validator/-2021-12-29 19:23:04
w2do/-2021-12-29 19:23:04
w3c-linkchecker/-2021-12-29 19:23:04
w3-dtd-mathml/-2021-12-29 19:23:04
wsgiproxy2/-2021-12-29 19:06:41
wtf-peewee/-2021-12-29 19:06:41
wsgicors/-2021-12-29 19:06:41
wurlitzer/-2021-12-29 19:06:41
wtforms/-2021-12-29 19:06:41
willow/-2021-12-29 19:06:40
winacl/-2021-12-29 19:06:40
wimsapi/-2021-12-29 19:06:40
wokkel/-2021-12-29 19:06:40
wheel/-2021-12-29 19:06:39
whatthepatch/-2021-12-29 19:06:39
whichcraft/-2021-12-29 19:06:39
webtest/-2021-12-29 19:06:39
wcwidth/-2021-12-29 19:06:38
wchartype/-2021-12-29 19:06:38
websocket-client/-2021-12-29 19:06:38
webpy/-2021-12-29 19:06:38
webcolors/-2021-12-29 19:06:38
webassets/-2021-12-29 19:06:38
watcher-dashboard/-2021-12-29 19:06:37
what-is-python/-2021-12-29 19:01:07
wsdl4j/-2021-12-29 18:43:27
wss4j/-2021-12-29 18:43:27
wildfly-common/-2021-12-29 18:43:20
wildfly-client-config/-2021-12-29 18:43:20
websocket-api/-2021-12-29 18:43:18
webjars-locator-core/-2021-12-29 18:43:16
webjars-locator/-2021-12-29 18:43:16
wala/-2021-12-29 18:43:13
watchtower-clojure/-2021-12-29 18:43:13
wagon/-2021-12-29 18:43:13
webcomponentsjs-custom-element-v0.js/-2021-12-29 18:29:02
wc-mode/-2021-12-29 17:50:48
with-simulated-input-el/-2021-12-29 17:50:48
weechat-el/-2021-12-29 17:50:48
web-mode/-2021-12-29 17:50:48
writegood-mode/-2021-12-29 17:50:48
ws-butler/-2021-12-29 17:50:48
with-editor/-2021-12-29 17:50:48